createdAt,value
2022-08-10T00:00:49.881Z,0.00
2022-08-10T00:01:51.412Z,0.00
2022-08-10T00:02:49.862Z,0.00
2022-08-10T00:03:49.860Z,0.00
2022-08-10T00:04:49.863Z,0.00
2022-08-10T00:05:53.240Z,0.00
2022-08-10T00:06:49.856Z,0.00
2022-08-10T00:07:49.807Z,0.00
2022-08-10T00:08:49.796Z,0.00
2022-08-10T00:09:50.635Z,0.00
2022-08-10T00:10:49.797Z,0.00
2022-08-10T00:11:49.785Z,0.00
2022-08-10T00:12:53.495Z,0.00
2022-08-10T00:13:50.767Z,0.00
2022-08-10T00:14:49.749Z,0.00
2022-08-10T00:15:54.672Z,0.00
2022-08-10T00:16:50.724Z,0.00
2022-08-10T00:17:49.727Z,0.00
2022-08-10T00:18:49.689Z,0.00
2022-08-10T00:20:02.921Z,0.00
2022-08-10T00:20:50.668Z,0.00
2022-08-10T00:21:49.655Z,0.00
2022-08-10T00:22:57.386Z,0.00
2022-08-10T00:23:50.647Z,0.00
2022-08-10T00:24:49.650Z,0.00
2022-08-10T00:25:49.620Z,0.00
2022-08-10T00:27:52.231Z,0.00
2022-08-10T00:28:03.146Z,0.00
2022-08-10T00:28:50.605Z,0.00
2022-08-10T00:29:49.607Z,0.00
2022-08-10T00:30:49.559Z,0.00
2022-08-10T00:31:58.259Z,0.00
2022-08-10T00:32:50.555Z,0.00
2022-08-10T00:33:49.544Z,0.00
2022-08-10T00:34:49.544Z,0.00
2022-08-10T00:35:49.566Z,0.00
2022-08-10T00:36:49.501Z,0.00
2022-08-10T00:37:53.961Z,0.00
2022-08-10T00:38:50.495Z,0.00
2022-08-10T00:39:49.525Z,0.00
2022-08-10T00:40:49.483Z,0.00
2022-08-10T00:42:06.536Z,0.00
2022-08-10T00:42:50.436Z,0.00
2022-08-10T00:43:49.448Z,0.00
2022-08-10T00:44:49.471Z,0.00
2022-08-10T00:45:58.928Z,0.00
2022-08-10T00:46:50.391Z,0.00
2022-08-10T00:47:49.374Z,0.00
2022-08-10T00:48:53.440Z,0.00
2022-08-10T00:49:50.409Z,0.00
2022-08-10T00:50:49.372Z,0.00
2022-08-10T00:51:49.335Z,0.00
2022-08-10T00:52:49.327Z,0.00
2022-08-10T00:53:49.325Z,0.00
2022-08-10T00:54:49.315Z,0.00
2022-08-10T00:57:10.033Z,0.00
2022-08-10T00:57:17.941Z,0.00
2022-08-10T00:57:55.347Z,0.00
2022-08-10T00:58:50.277Z,0.00
2022-08-10T00:59:59.571Z,0.00
2022-08-10T01:00:50.478Z,0.00
2022-08-10T01:02:08.626Z,0.00
2022-08-10T01:02:50.552Z,0.00
2022-08-10T01:04:39.826Z,0.00
2022-08-10T01:05:00.313Z,0.00
2022-08-10T01:05:51.586Z,0.00
2022-08-10T01:06:49.211Z,0.00
2022-08-10T01:07:49.171Z,0.00
2022-08-10T01:08:49.165Z,0.00
2022-08-10T01:09:55.781Z,0.00
2022-08-10T01:10:50.174Z,0.00
2022-08-10T01:12:38.646Z,0.00
2022-08-10T01:12:50.236Z,0.00
2022-08-10T01:13:49.117Z,0.00
2022-08-10T01:14:49.102Z,0.00
2022-08-10T01:15:49.179Z,0.00
2022-08-10T01:16:49.084Z,0.00
2022-08-10T01:17:50.111Z,0.00
2022-08-10T01:18:49.082Z,0.00
2022-08-10T01:19:49.037Z,0.00
2022-08-10T01:20:49.066Z,0.00
2022-08-10T01:21:56.670Z,0.00
2022-08-10T01:22:50.029Z,0.00
2022-08-10T01:23:49.007Z,0.00
2022-08-10T01:24:48.999Z,0.00
2022-08-10T01:26:12.294Z,0.00
2022-08-10T01:26:49.984Z,0.00
2022-08-10T01:27:48.944Z,0.00
2022-08-10T01:28:48.945Z,0.00
2022-08-10T01:29:48.957Z,0.00
2022-08-10T01:30:48.948Z,0.00
2022-08-10T01:31:48.936Z,0.00
2022-08-10T01:32:48.902Z,0.00
2022-08-10T01:33:59.089Z,0.00
2022-08-10T01:34:49.881Z,0.00
2022-08-10T01:35:48.915Z,0.00
2022-08-10T01:36:48.857Z,0.00
2022-08-10T01:37:51.894Z,0.00
2022-08-10T01:38:48.895Z,0.00
2022-08-10T01:39:48.875Z,0.00
2022-08-10T01:40:48.865Z,0.00
2022-08-10T01:41:48.829Z,0.00
2022-08-10T01:42:48.801Z,0.00
2022-08-10T01:43:48.826Z,0.00
2022-08-10T01:44:48.786Z,0.00
2022-08-10T01:45:48.766Z,0.00
2022-08-10T01:46:48.763Z,0.00
2022-08-10T01:47:48.745Z,0.00
2022-08-10T01:48:48.780Z,0.00
2022-08-10T01:49:48.776Z,0.00
2022-08-10T01:50:59.252Z,0.00
2022-08-10T01:51:49.718Z,0.00
2022-08-10T01:52:48.708Z,0.00
2022-08-10T01:53:48.694Z,0.00
2022-08-10T01:54:48.691Z,0.00
2022-08-10T01:55:48.654Z,0.00
2022-08-10T01:56:48.660Z,0.00
2022-08-10T01:57:48.658Z,0.00
2022-08-10T01:58:48.664Z,0.00
2022-08-10T02:00:00.603Z,0.00
2022-08-10T02:00:49.639Z,0.00
2022-08-10T02:01:48.611Z,0.00
2022-08-10T02:02:48.572Z,0.00
2022-08-10T02:04:03.684Z,0.00
2022-08-10T02:04:49.556Z,0.00
2022-08-10T02:05:48.581Z,0.00
2022-08-10T02:06:48.557Z,0.00
2022-08-10T02:07:48.566Z,0.00
2022-08-10T02:08:48.564Z,0.00
2022-08-10T02:09:49.524Z,0.00
2022-08-10T02:10:48.495Z,0.00
2022-08-10T02:12:05.430Z,0.00
2022-08-10T02:12:49.532Z,0.00
2022-08-10T02:13:48.462Z,0.00
2022-08-10T02:14:48.464Z,0.00
2022-08-10T02:16:01.426Z,0.00
2022-08-10T02:16:49.474Z,0.00
2022-08-10T02:17:57.599Z,0.00
2022-08-10T02:18:49.457Z,0.00
2022-08-10T02:19:48.394Z,0.00
2022-08-10T02:20:48.411Z,0.00
2022-08-10T02:22:38.155Z,0.00
2022-08-10T02:22:49.536Z,0.00
2022-08-10T02:23:59.421Z,0.00
2022-08-10T02:24:49.379Z,0.00
2022-08-10T02:25:48.354Z,0.00
2022-08-10T02:26:48.341Z,0.00
2022-08-10T02:27:49.322Z,0.00
2022-08-10T02:28:48.353Z,0.00
2022-08-10T02:29:49.265Z,0.00
2022-08-10T02:30:48.280Z,0.00
2022-08-10T02:31:49.589Z,0.00
2022-08-10T02:32:49.598Z,0.00
2022-08-10T02:33:57.640Z,0.00
2022-08-10T02:34:49.258Z,0.00
2022-08-10T02:35:54.397Z,0.00
2022-08-10T02:36:49.250Z,0.00
2022-08-10T02:37:48.217Z,0.00
2022-08-10T02:38:59.531Z,0.00
2022-08-10T02:39:49.199Z,0.00
2022-08-10T02:45:01.341Z,0.00
2022-08-10T02:45:17.610Z,0.00
2022-08-10T02:45:29.084Z,0.00
2022-08-10T02:45:29.302Z,0.00
2022-08-10T02:45:29.935Z,0.00
2022-08-10T02:45:49.132Z,0.00
2022-08-10T02:46:48.127Z,0.00
2022-08-10T02:47:52.180Z,0.00
2022-08-10T02:48:48.127Z,0.00
2022-08-10T02:49:48.050Z,0.00
2022-08-10T02:50:48.089Z,0.00
2022-08-10T02:52:07.291Z,0.00
2022-08-10T02:52:49.063Z,0.00
2022-08-10T02:53:55.926Z,0.00
2022-08-10T02:54:49.003Z,0.00
2022-08-10T02:55:47.965Z,0.00
2022-08-10T02:56:47.987Z,0.00
2022-08-10T02:58:13.877Z,0.00
2022-08-10T02:58:48.959Z,0.00
2022-08-10T02:59:47.970Z,0.00
2022-08-10T03:00:48.102Z,0.00
2022-08-10T03:01:47.956Z,0.00
2022-08-10T03:02:47.939Z,0.00
2022-08-10T03:03:47.930Z,0.00
2022-08-10T03:04:56.043Z,0.00
2022-08-10T03:05:48.862Z,0.00
2022-08-10T03:06:47.892Z,0.00
2022-08-10T03:07:47.862Z,0.00
2022-08-10T03:08:47.884Z,0.00
2022-08-10T03:09:47.823Z,0.00
2022-08-10T03:10:47.824Z,0.00
2022-08-10T03:12:35.711Z,0.00
2022-08-10T03:12:49.078Z,0.00
2022-08-10T03:13:52.457Z,0.00
2022-08-10T03:14:48.774Z,0.00
2022-08-10T03:15:47.809Z,0.00
2022-08-10T03:16:47.745Z,0.00
2022-08-10T03:17:57.579Z,0.00
2022-08-10T03:18:48.743Z,0.00
2022-08-10T03:20:35.674Z,0.00
2022-08-10T03:20:48.714Z,0.00
2022-08-10T03:21:49.008Z,0.00
2022-08-10T03:22:47.682Z,0.00
2022-08-10T03:23:47.675Z,0.00
2022-08-10T03:24:47.682Z,0.00
2022-08-10T03:25:52.642Z,0.00
2022-08-10T03:26:48.668Z,0.00
2022-08-10T03:27:47.634Z,0.00
2022-08-10T03:28:47.636Z,0.00
2022-08-10T03:30:32.404Z,0.00
2022-08-10T03:30:48.640Z,5.62
2022-08-10T03:31:47.600Z,5.62
2022-08-10T03:32:47.589Z,5.62
2022-08-10T03:33:47.592Z,5.62
2022-08-10T03:34:47.639Z,5.62
2022-08-10T03:36:43.986Z,5.62
2022-08-10T03:36:48.540Z,5.62
2022-08-10T03:37:47.540Z,5.62
2022-08-10T03:38:47.509Z,11.25
2022-08-10T03:39:47.590Z,11.25
2022-08-10T03:40:47.534Z,11.25
2022-08-10T03:41:47.796Z,11.25
2022-08-10T03:42:48.477Z,11.25
2022-08-10T03:43:47.644Z,16.88
2022-08-10T03:44:50.523Z,16.88
2022-08-10T03:45:54.695Z,16.88
2022-08-10T03:46:48.425Z,16.88
2022-08-10T03:47:47.428Z,22.50
2022-08-10T03:48:49.876Z,22.50
2022-08-10T03:49:47.408Z,22.50
2022-08-10T03:50:51.520Z,28.12
2022-08-10T03:51:48.385Z,28.12
2022-08-10T03:52:47.377Z,28.12
2022-08-10T03:54:04.509Z,28.12
2022-08-10T03:54:48.352Z,33.75
2022-08-10T03:56:27.383Z,33.75
2022-08-10T03:56:48.338Z,33.75
2022-08-10T03:57:49.554Z,39.38
2022-08-10T03:58:47.316Z,39.38
2022-08-10T03:59:47.297Z,39.38
2022-08-10T04:00:47.306Z,45.00
2022-08-10T04:02:44.494Z,45.00
2022-08-10T04:02:48.498Z,45.00
2022-08-10T04:03:47.256Z,50.62
2022-08-10T04:04:47.253Z,50.62
2022-08-10T04:05:47.255Z,50.62
2022-08-10T04:06:47.238Z,50.62
2022-08-10T04:07:47.253Z,56.25
2022-08-10T04:08:47.209Z,56.25
2022-08-10T04:09:55.902Z,56.25
2022-08-10T04:10:48.186Z,56.25
2022-08-10T04:11:47.168Z,56.25
2022-08-10T04:12:47.158Z,61.88
2022-08-10T04:13:47.163Z,61.88
2022-08-10T04:14:50.900Z,61.88
2022-08-10T04:15:48.133Z,61.88
2022-08-10T04:16:47.129Z,61.88
2022-08-10T04:18:03.940Z,61.88
2022-08-10T04:18:48.120Z,61.88
2022-08-10T04:19:47.081Z,67.50
2022-08-10T04:20:47.077Z,67.50
2022-08-10T04:21:47.068Z,67.50
2022-08-10T04:22:47.070Z,73.12
2022-08-10T04:23:52.549Z,73.12
2022-08-10T04:24:48.031Z,73.12
2022-08-10T04:25:47.039Z,73.12
2022-08-10T04:26:47.031Z,78.75
2022-08-10T04:27:47.044Z,78.75
2022-08-10T04:28:47.003Z,78.75
2022-08-10T04:29:46.974Z,84.38
2022-08-10T04:30:46.972Z,84.38
2022-08-10T04:31:46.960Z,84.38
2022-08-10T04:32:46.963Z,90.00
2022-08-10T04:33:46.943Z,90.00
2022-08-10T04:34:46.945Z,90.00
2022-08-10T04:35:46.927Z,90.00
2022-08-10T04:36:46.914Z,95.62
2022-08-10T04:37:47.787Z,95.62
2022-08-10T04:38:46.900Z,95.62
2022-08-10T04:39:46.950Z,101.25
2022-08-10T04:40:46.868Z,101.25
2022-08-10T04:41:47.691Z,101.25
2022-08-10T04:42:46.836Z,106.88
2022-08-10T04:43:46.856Z,106.88
2022-08-10T04:44:46.823Z,106.88
2022-08-10T04:45:48.397Z,112.50
2022-08-10T04:46:58.512Z,123.75
2022-08-10T04:47:57.366Z,123.75
2022-08-10T04:49:01.993Z,129.38
2022-08-10T04:49:54.616Z,129.38
2022-08-10T04:50:48.912Z,129.38
2022-08-10T04:51:46.739Z,129.38
2022-08-10T04:52:46.721Z,129.38
2022-08-10T04:54:05.722Z,129.38
2022-08-10T04:54:47.710Z,129.38
2022-08-10T04:55:46.720Z,135.00
2022-08-10T04:56:46.686Z,146.25
2022-08-10T04:57:46.681Z,444.38
2022-08-10T04:58:46.673Z,900.00
2022-08-10T04:59:46.658Z,1096.88
2022-08-10T05:00:46.701Z,1243.12
2022-08-10T05:02:21.848Z,1361.25
2022-08-10T05:02:47.621Z,1423.12
2022-08-10T05:04:36.678Z,1428.75
2022-08-10T05:04:47.603Z,1591.88
2022-08-10T05:05:46.618Z,1788.75
2022-08-10T05:06:46.610Z,1884.38
2022-08-10T05:07:54.305Z,2103.75
2022-08-10T05:08:47.577Z,2424.38
2022-08-10T05:10:01.735Z,2171.25
2022-08-10T05:10:47.574Z,1563.75
2022-08-10T05:11:46.527Z,1406.25
2022-08-10T05:12:46.516Z,1288.12
2022-08-10T05:13:46.507Z,1220.62
2022-08-10T05:14:46.537Z,1113.75
2022-08-10T05:15:46.498Z,1001.25
2022-08-10T05:16:46.477Z,1186.88
2022-08-10T05:18:08.745Z,1361.25
2022-08-10T05:18:47.461Z,1293.75
2022-08-10T05:20:02.891Z,1243.12
2022-08-10T05:20:50.221Z,1389.38
2022-08-10T05:22:04.662Z,1299.38
2022-08-10T05:22:47.419Z,978.75
2022-08-10T05:23:46.417Z,911.25
2022-08-10T05:24:46.407Z,1085.62
2022-08-10T05:25:46.410Z,1057.50
2022-08-10T05:27:00.228Z,888.75
2022-08-10T05:27:47.361Z,911.25
2022-08-10T05:28:46.370Z,967.50
2022-08-10T05:29:46.361Z,1085.62
2022-08-10T05:30:47.334Z,1125.00
2022-08-10T05:31:47.971Z,990.00
2022-08-10T05:32:57.755Z,905.62
2022-08-10T05:33:47.304Z,933.75
2022-08-10T05:34:46.292Z,860.62
2022-08-10T05:35:56.965Z,787.50
2022-08-10T05:36:47.293Z,781.88
2022-08-10T05:38:09.489Z,781.88
2022-08-10T05:38:47.268Z,871.88
2022-08-10T05:39:46.314Z,883.12
2022-08-10T05:40:47.809Z,838.12
2022-08-10T05:41:51.049Z,731.25
2022-08-10T05:42:47.221Z,635.62
2022-08-10T05:43:46.205Z,669.38
2022-08-10T05:44:46.194Z,731.25
2022-08-10T05:46:18.431Z,618.75
2022-08-10T05:46:47.158Z,748.12
2022-08-10T05:48:54.602Z,725.62
2022-08-10T05:48:56.802Z,562.50
2022-08-10T05:49:47.209Z,568.12
2022-08-10T05:50:46.188Z,601.88
2022-08-10T05:51:46.185Z,618.75
2022-08-10T05:52:46.164Z,556.88
2022-08-10T05:54:01.060Z,528.75
2022-08-10T05:54:47.420Z,545.62
2022-08-10T05:55:46.133Z,562.50
2022-08-10T05:56:56.099Z,607.50
2022-08-10T05:57:47.122Z,748.12
2022-08-10T05:58:46.103Z,708.75
2022-08-10T06:00:33.915Z,680.62
2022-08-10T06:00:50.367Z,624.38
2022-08-10T06:01:50.892Z,646.88
2022-08-10T06:02:47.402Z,736.88
2022-08-10T06:03:46.345Z,781.88
2022-08-10T06:04:46.021Z,793.12
2022-08-10T06:05:46.006Z,798.75
2022-08-10T06:06:46.261Z,736.88
2022-08-10T06:07:45.987Z,736.88
2022-08-10T06:08:46.272Z,810.00
2022-08-10T06:09:59.535Z,866.25
2022-08-10T06:12:16.679Z,826.88
2022-08-10T06:12:27.762Z,793.12
2022-08-10T06:12:54.370Z,798.75
2022-08-10T06:13:59.688Z,939.38
2022-08-10T06:14:53.085Z,990.00
2022-08-10T06:15:51.750Z,1018.12
2022-08-10T06:16:46.898Z,1102.50
2022-08-10T06:17:45.882Z,1248.75
2022-08-10T06:18:48.311Z,1541.25
2022-08-10T06:19:46.213Z,1822.50
2022-08-10T06:20:45.926Z,1676.25
2022-08-10T06:21:55.003Z,1681.88
2022-08-10T06:22:46.836Z,1670.62
2022-08-10T06:23:45.873Z,1423.12
2022-08-10T06:25:04.842Z,1260.00
2022-08-10T06:26:10.141Z,1299.38
2022-08-10T06:26:46.796Z,1226.25
2022-08-10T06:27:45.814Z,1074.38
2022-08-10T06:29:01.907Z,1012.50
2022-08-10T06:29:46.852Z,911.25
2022-08-10T06:30:45.758Z,838.12
2022-08-10T06:31:48.063Z,849.38
2022-08-10T06:32:46.053Z,838.12
2022-08-10T06:33:45.748Z,849.38
2022-08-10T06:34:45.830Z,838.12
2022-08-10T06:35:45.759Z,731.25
2022-08-10T06:36:45.677Z,613.12
2022-08-10T06:37:51.662Z,596.25
2022-08-10T06:38:47.006Z,556.88
2022-08-10T06:39:45.712Z,590.62
2022-08-10T06:40:45.973Z,596.25
2022-08-10T06:42:14.842Z,585.00
2022-08-10T06:42:46.880Z,523.12
2022-08-10T06:43:45.658Z,489.38
2022-08-10T06:44:46.388Z,461.25
2022-08-10T06:45:45.596Z,427.50
2022-08-10T06:46:48.106Z,405.00
2022-08-10T06:47:45.623Z,399.38
2022-08-10T06:48:47.213Z,388.12
2022-08-10T06:49:45.804Z,376.88
2022-08-10T06:50:58.536Z,360.00
2022-08-10T06:51:46.567Z,360.00
2022-08-10T06:52:46.557Z,348.75
2022-08-10T06:53:53.961Z,348.75
2022-08-10T06:54:46.621Z,343.12
2022-08-10T06:55:55.563Z,331.88
2022-08-10T06:57:01.753Z,298.12
2022-08-10T06:57:59.385Z,309.38
2022-08-10T06:58:46.470Z,326.25
2022-08-10T06:59:45.459Z,303.75
2022-08-10T07:00:45.504Z,315.00
2022-08-10T07:01:51.262Z,320.62
2022-08-10T07:02:46.419Z,320.62
2022-08-10T07:03:45.419Z,315.00
2022-08-10T07:04:45.460Z,315.00
2022-08-10T07:05:50.591Z,298.12
2022-08-10T07:06:45.571Z,270.00
2022-08-10T07:07:46.545Z,253.12
2022-08-10T07:08:45.750Z,253.12
2022-08-10T07:09:45.754Z,241.88
2022-08-10T07:10:46.892Z,236.25
2022-08-10T07:11:45.829Z,236.25
2022-08-10T07:12:46.438Z,236.25
2022-08-10T07:14:15.766Z,236.25
2022-08-10T07:14:46.510Z,230.62
2022-08-10T07:15:59.492Z,225.00
2022-08-10T07:16:46.964Z,230.62
2022-08-10T07:17:45.368Z,230.62
2022-08-10T07:18:47.593Z,230.62
2022-08-10T07:19:49.777Z,230.62
2022-08-10T07:20:47.057Z,230.62
2022-08-10T07:21:45.295Z,225.00
2022-08-10T07:23:01.138Z,225.00
2022-08-10T07:23:58.509Z,225.00
2022-08-10T07:24:46.502Z,225.00
2022-08-10T07:25:45.286Z,225.00
2022-08-10T07:26:45.220Z,236.25
2022-08-10T07:28:00.735Z,230.62
2022-08-10T07:28:48.124Z,230.62
2022-08-10T07:29:53.220Z,230.62
2022-08-10T07:30:46.222Z,236.25
2022-08-10T07:31:56.317Z,230.62
2022-08-10T07:32:46.185Z,236.25
2022-08-10T07:33:45.164Z,236.25
2022-08-10T07:34:45.152Z,236.25
2022-08-10T07:35:45.257Z,236.25
2022-08-10T07:36:45.170Z,236.25
2022-08-10T07:37:45.157Z,236.25
2022-08-10T07:38:45.247Z,236.25
2022-08-10T07:39:58.008Z,236.25
2022-08-10T07:40:46.155Z,225.00
2022-08-10T07:41:45.159Z,230.62
2022-08-10T07:42:46.034Z,219.38
2022-08-10T07:43:45.024Z,213.75
2022-08-10T07:44:45.251Z,208.12
2022-08-10T07:45:45.044Z,208.12
2022-08-10T07:46:44.995Z,202.50
2022-08-10T07:47:46.271Z,219.38
2022-08-10T07:48:47.509Z,208.12
2022-08-10T07:49:44.929Z,213.75
2022-08-10T07:50:44.939Z,230.62
2022-08-10T07:51:45.003Z,236.25
2022-08-10T07:52:45.188Z,241.88
2022-08-10T07:53:44.966Z,241.88
2022-08-10T07:54:44.898Z,230.62
2022-08-10T07:56:04.108Z,219.38
2022-08-10T07:56:49.579Z,230.62
2022-08-10T07:57:45.111Z,225.00
2022-08-10T07:58:46.470Z,219.38
2022-08-10T07:59:45.831Z,241.88
2022-08-10T08:00:44.848Z,247.50
2022-08-10T08:01:44.842Z,236.25
2022-08-10T08:02:44.831Z,225.00
2022-08-10T08:03:45.026Z,185.62
2022-08-10T08:04:45.784Z,213.75
2022-08-10T08:05:58.266Z,213.75
2022-08-10T08:06:46.672Z,151.88
2022-08-10T08:07:44.777Z,168.75
2022-08-10T08:08:44.895Z,225.00
2022-08-10T08:09:58.166Z,230.62
2022-08-10T08:10:45.946Z,241.88
2022-08-10T08:11:44.901Z,247.50
2022-08-10T08:12:44.810Z,253.12
2022-08-10T08:13:44.824Z,247.50
2022-08-10T08:14:45.537Z,253.12
2022-08-10T08:16:17.291Z,264.38
2022-08-10T08:16:45.815Z,253.12
2022-08-10T08:17:44.843Z,258.75
2022-08-10T08:19:03.682Z,264.38
2022-08-10T08:19:47.727Z,258.75
2022-08-10T08:20:45.612Z,258.75
2022-08-10T08:24:08.454Z,270.00
2022-08-10T08:24:11.140Z,253.12
2022-08-10T08:24:16.390Z,264.38
2022-08-10T08:24:45.764Z,264.38
2022-08-10T08:25:45.326Z,270.00
2022-08-10T08:26:46.146Z,270.00
2022-08-10T08:27:47.579Z,270.00
2022-08-10T08:28:45.732Z,270.00
2022-08-10T08:29:45.353Z,275.62
2022-08-10T08:30:48.395Z,275.62
2022-08-10T08:31:54.273Z,275.62
2022-08-10T08:32:46.186Z,275.62
2022-08-10T08:33:44.722Z,275.62
2022-08-10T08:34:44.572Z,281.25
2022-08-10T08:35:44.557Z,281.25
2022-08-10T08:36:44.551Z,281.25
2022-08-10T08:38:30.273Z,281.25
2022-08-10T08:38:45.727Z,286.88
2022-08-10T08:39:46.257Z,286.88
2022-08-10T08:40:45.516Z,286.88
2022-08-10T08:41:44.666Z,286.88
2022-08-10T08:42:44.398Z,286.88
2022-08-10T08:43:44.466Z,292.50
2022-08-10T08:44:44.474Z,292.50
2022-08-10T08:45:50.872Z,292.50
2022-08-10T08:46:45.330Z,298.12
2022-08-10T08:48:04.425Z,298.12
2022-08-10T08:48:46.783Z,298.12
2022-08-10T08:50:07.930Z,298.12
2022-08-10T08:50:45.440Z,298.12
2022-08-10T08:52:08.200Z,303.75
2022-08-10T08:52:45.269Z,303.75
2022-08-10T08:54:03.180Z,303.75
2022-08-10T08:54:45.279Z,303.75
2022-08-10T08:56:03.669Z,309.38
2022-08-10T08:56:49.990Z,309.38
2022-08-10T08:57:46.330Z,309.38
2022-08-10T08:58:45.191Z,309.38
2022-08-10T08:59:44.226Z,309.38
2022-08-10T09:00:44.451Z,309.38
2022-08-10T09:01:44.264Z,315.00
2022-08-10T09:02:44.373Z,315.00
2022-08-10T09:03:45.184Z,315.00
2022-08-10T09:04:44.143Z,315.00
2022-08-10T09:05:58.301Z,315.00
2022-08-10T09:06:45.286Z,320.62
2022-08-10T09:08:01.473Z,320.62
2022-08-10T09:08:45.135Z,320.62
2022-08-10T09:09:44.131Z,320.62
2022-08-10T09:10:44.093Z,326.25
2022-08-10T09:11:44.129Z,326.25
2022-08-10T09:12:44.080Z,326.25
2022-08-10T09:13:44.070Z,326.25
2022-08-10T09:14:44.048Z,326.25
2022-08-10T09:15:45.150Z,331.88
2022-08-10T09:16:44.285Z,331.88
2022-08-10T09:17:44.024Z,337.50
2022-08-10T09:18:45.957Z,337.50
2022-08-10T09:19:44.061Z,348.75
2022-08-10T09:20:43.982Z,337.50
2022-08-10T09:21:58.836Z,343.12
2022-08-10T09:22:45.248Z,343.12
2022-08-10T09:24:04.995Z,343.12
2022-08-10T09:24:44.933Z,343.12
2022-08-10T09:25:43.997Z,348.75
2022-08-10T09:26:43.942Z,348.75
2022-08-10T09:27:43.935Z,348.75
2022-08-10T09:28:44.922Z,348.75
2022-08-10T09:29:44.894Z,360.00
2022-08-10T09:31:03.640Z,331.88
2022-08-10T09:33:06.153Z,337.50
2022-08-10T09:36:19.687Z,337.50
2022-08-10T09:36:20.580Z,337.50
2022-08-10T09:36:26.169Z,337.50
2022-08-10T09:36:29.396Z,343.12
2022-08-10T09:36:46.491Z,343.12
2022-08-10T09:38:01.245Z,354.38
2022-08-10T09:38:44.845Z,360.00
2022-08-10T09:40:56.003Z,360.00
2022-08-10T09:40:58.844Z,365.62
2022-08-10T09:41:45.273Z,365.62
2022-08-10T09:42:44.137Z,365.62
2022-08-10T09:43:44.305Z,365.62
2022-08-10T09:44:57.513Z,365.62
2022-08-10T09:45:44.926Z,371.25
2022-08-10T09:46:45.812Z,371.25
2022-08-10T09:48:01.707Z,371.25
2022-08-10T09:48:45.997Z,371.25
2022-08-10T09:50:04.233Z,371.25
2022-08-10T09:51:28.072Z,376.88
2022-08-10T09:51:46.368Z,376.88
2022-08-10T09:52:43.939Z,376.88
2022-08-10T09:53:43.911Z,376.88
2022-08-10T09:54:43.606Z,376.88
2022-08-10T09:56:19.217Z,376.88
2022-08-10T09:56:44.602Z,382.50
2022-08-10T09:57:46.301Z,382.50
2022-08-10T09:58:43.838Z,382.50
2022-08-10T09:59:59.916Z,388.12
2022-08-10T10:00:44.614Z,388.12
2022-08-10T10:02:02.417Z,388.12
2022-08-10T10:02:44.786Z,388.12
2022-08-10T10:03:43.567Z,393.75
2022-08-10T10:04:43.769Z,388.12
2022-08-10T10:05:51.298Z,399.38
2022-08-10T10:06:44.477Z,393.75
2022-08-10T10:07:43.511Z,393.75
2022-08-10T10:08:43.479Z,388.12
2022-08-10T10:09:43.477Z,393.75
2022-08-10T10:10:47.842Z,393.75
2022-08-10T10:11:43.477Z,393.75
2022-08-10T10:12:43.413Z,393.75
2022-08-10T10:14:02.562Z,393.75
2022-08-10T10:14:44.429Z,393.75
2022-08-10T10:15:43.679Z,393.75
2022-08-10T10:16:43.426Z,393.75
2022-08-10T10:17:43.421Z,399.38
2022-08-10T10:18:45.147Z,399.38
2022-08-10T10:19:43.384Z,399.38
2022-08-10T10:20:43.349Z,399.38
2022-08-10T10:21:55.743Z,405.00
2022-08-10T10:22:44.386Z,405.00
2022-08-10T10:23:59.723Z,405.00
2022-08-10T10:24:44.288Z,405.00
2022-08-10T10:25:51.794Z,405.00
2022-08-10T10:26:44.288Z,405.00
2022-08-10T10:27:43.333Z,405.00
2022-08-10T10:29:24.771Z,410.62
2022-08-10T10:29:56.675Z,410.62
2022-08-10T10:30:44.232Z,410.62
2022-08-10T10:31:43.205Z,410.62
2022-08-10T10:32:43.218Z,410.62
2022-08-10T10:33:43.265Z,410.62
2022-08-10T10:34:43.194Z,410.62
2022-08-10T10:35:43.446Z,410.62
2022-08-10T10:36:43.212Z,416.25
2022-08-10T10:38:01.227Z,416.25
2022-08-10T10:38:44.136Z,416.25
2022-08-10T10:39:43.154Z,416.25
2022-08-10T10:40:44.909Z,416.25
2022-08-10T10:42:03.698Z,416.25
2022-08-10T10:42:45.598Z,416.25
2022-08-10T10:43:43.103Z,416.25
2022-08-10T10:44:43.108Z,421.88
2022-08-10T10:45:50.356Z,427.50
2022-08-10T10:46:44.848Z,421.88
2022-08-10T10:47:43.356Z,421.88
2022-08-10T10:48:45.131Z,421.88
2022-08-10T10:49:43.034Z,421.88
2022-08-10T10:50:43.270Z,427.50
2022-08-10T10:51:43.012Z,427.50
2022-08-10T10:52:43.023Z,427.50
2022-08-10T10:53:43.253Z,427.50
2022-08-10T10:54:42.960Z,427.50
2022-08-10T10:56:13.884Z,433.12
2022-08-10T10:56:43.944Z,433.12
2022-08-10T10:57:58.699Z,433.12
2022-08-10T10:58:44.216Z,427.50
2022-08-10T10:59:56.230Z,433.12
2022-08-10T11:00:43.908Z,433.12
2022-08-10T11:01:42.956Z,433.12
2022-08-10T11:02:42.906Z,433.12
2022-08-10T11:03:42.895Z,438.75
2022-08-10T11:04:43.124Z,438.75
2022-08-10T11:05:43.139Z,433.12
2022-08-10T11:06:52.958Z,438.75
2022-08-10T11:07:42.885Z,438.75
2022-08-10T11:08:43.405Z,438.75
2022-08-10T11:10:09.243Z,444.38
2022-08-10T11:10:47.533Z,438.75
2022-08-10T11:12:00.922Z,438.75
2022-08-10T11:12:46.828Z,444.38
2022-08-10T11:14:25.928Z,444.38
2022-08-10T11:14:43.780Z,444.38
2022-08-10T11:15:47.428Z,444.38
2022-08-10T11:16:44.473Z,444.38
2022-08-10T11:17:43.042Z,444.38
2022-08-10T11:18:42.723Z,444.38
2022-08-10T11:20:02.648Z,444.38
2022-08-10T11:20:44.146Z,444.38
2022-08-10T11:21:42.690Z,444.38
2022-08-10T11:22:42.732Z,444.38
2022-08-10T11:23:42.672Z,450.00
2022-08-10T11:24:49.650Z,444.38
2022-08-10T11:25:43.654Z,444.38
2022-08-10T11:26:42.768Z,450.00
2022-08-10T11:27:42.697Z,450.00
2022-08-10T11:28:42.663Z,450.00
2022-08-10T11:29:49.444Z,450.00
2022-08-10T11:30:43.595Z,450.00
2022-08-10T11:31:42.886Z,450.00
2022-08-10T11:32:42.590Z,450.00
2022-08-10T11:34:03.789Z,455.62
2022-08-10T11:34:47.682Z,455.62
2022-08-10T11:35:43.839Z,455.62
2022-08-10T11:36:42.569Z,455.62
2022-08-10T11:38:29.640Z,455.62
2022-08-10T11:39:11.036Z,455.62
2022-08-10T11:39:49.726Z,455.62
2022-08-10T11:40:43.494Z,455.62
2022-08-10T11:42:10.196Z,455.62
2022-08-10T11:42:43.915Z,455.62
2022-08-10T11:43:42.561Z,455.62
2022-08-10T11:44:42.588Z,455.62
2022-08-10T11:45:52.037Z,455.62
2022-08-10T11:46:43.532Z,455.62
2022-08-10T11:47:43.085Z,455.62
2022-08-10T11:48:53.180Z,455.62
2022-08-10T11:49:44.336Z,455.62
2022-08-10T11:50:45.643Z,455.62
2022-08-10T11:51:42.568Z,455.62
2022-08-10T11:52:42.367Z,455.62
2022-08-10T11:53:42.354Z,455.62
2022-08-10T11:54:42.461Z,455.62
2022-08-10T11:55:42.552Z,455.62
2022-08-10T11:56:42.436Z,455.62
2022-08-10T11:57:54.031Z,455.62
2022-08-10T11:58:43.321Z,455.62
2022-08-10T11:59:42.411Z,461.25
2022-08-10T12:00:42.377Z,461.25
2022-08-10T12:01:42.271Z,461.25
2022-08-10T12:02:42.324Z,461.25
2022-08-10T12:03:42.272Z,461.25
2022-08-10T12:04:42.255Z,461.25
2022-08-10T12:05:48.204Z,461.25
2022-08-10T12:06:55.249Z,461.25
2022-08-10T12:10:03.077Z,466.88
2022-08-10T12:10:04.172Z,461.25
2022-08-10T12:10:08.981Z,466.88
2022-08-10T12:10:43.224Z,461.25
2022-08-10T12:11:42.193Z,461.25
2022-08-10T12:12:42.487Z,461.25
2022-08-10T12:13:53.858Z,461.25
2022-08-10T12:14:43.164Z,461.25
2022-08-10T12:15:42.173Z,461.25
2022-08-10T12:16:42.196Z,461.25
2022-08-10T12:17:42.355Z,461.25
2022-08-10T12:18:42.117Z,461.25
2022-08-10T12:20:02.471Z,461.25
2022-08-10T12:20:43.148Z,461.25
2022-08-10T12:21:42.237Z,461.25
2022-08-10T12:22:42.079Z,461.25
2022-08-10T12:23:42.067Z,461.25
2022-08-10T12:24:42.339Z,461.25
2022-08-10T12:25:55.528Z,461.25
2022-08-10T12:26:43.019Z,461.25
2022-08-10T12:27:42.331Z,461.25
2022-08-10T12:28:50.785Z,461.25
2022-08-10T12:29:43.042Z,461.25
2022-08-10T12:30:42.121Z,461.25
2022-08-10T12:31:42.077Z,461.25
2022-08-10T12:32:41.942Z,461.25
2022-08-10T12:34:02.672Z,461.25
2022-08-10T12:34:44.103Z,461.25
2022-08-10T12:35:51.614Z,466.88
2022-08-10T12:36:42.936Z,466.88
2022-08-10T12:37:42.179Z,461.25
2022-08-10T12:38:41.967Z,466.88
2022-08-10T12:39:42.091Z,466.88
2022-08-10T12:40:42.007Z,466.88
2022-08-10T12:41:45.031Z,461.25
2022-08-10T12:42:42.156Z,466.88